Time;durP1;ratioP1;P1;durP2;ratioP2;P2;SDS_P1;SDS_P2;PMS_P1;PMS_P2;Temp;Humidity;BMP_temperature;BMP_pressure;BME280_temperature;BME280_humidity;BME280_pressure;Samples;Min_cycle;Max_cycle;Signal;HPM_P1;HPM_P2
2022/04/09 00:00:23;;;;;;;0.82;0.63;;;;;;;2.83;100.00;99587.13;6246967;28;20076;-71
2022/04/09 00:03:24;;;;;;;1.10;0.65;;;;;;;2.85;100.00;99594.84;6247897;28;20054;-72
2022/04/09 00:06:26;;;;;;;9.50;1.55;;;;;;;2.87;100.00;99593.88;6247510;28;20413;-72
2022/04/09 00:09:27;;;;;;;3.67;0.93;;;;;;;2.84;100.00;99599.19;6247508;28;20057;-72
2022/04/09 00:12:28;;;;;;;0.60;0.52;;;;;;;2.84;100.00;99599.19;6246875;28;20072;-72
2022/04/09 00:15:31;;;;;;;2.47;1.00;;;;;;;2.86;100.00;99601.72;6247495;28;20056;-71
2022/04/09 00:18:33;;;;;;;0.88;0.60;;;;;;;2.89;100.00;99601.59;6247353;28;20055;-73
2022/04/09 00:21:35;;;;;;;2.35;0.40;;;;;;;2.91;100.00;99605.84;6246714;28;20056;-71
2022/04/09 00:24:36;;;;;;;0.30;0.30;;;;;;;2.94;100.00;99610.88;6247337;28;20139;-71
2022/04/09 00:27:38;;;;;;;1.60;0.68;;;;;;;2.95;100.00;99612.59;6246833;28;20045;-72
2022/04/09 00:30:41;;;;;;;1.80;0.63;;;;;;;2.91;100.00;99623.16;6246408;28;20056;-72
2022/04/09 00:33:42;;;;;;;3.30;0.95;;;;;;;2.89;100.00;99622.34;6247304;28;20053;-71
2022/04/09 00:36:43;;;;;;;1.02;0.80;;;;;;;2.89;100.00;99632.72;6247087;28;20497;-72
2022/04/09 00:39:45;;;;;;;2.55;0.68;;;;;;;2.89;100.00;99635.31;6246829;28;20041;-72
2022/04/09 00:42:47;;;;;;;4.28;0.75;;;;;;;2.95;100.00;99646.31;6246527;28;20076;-71
2022/04/09 00:45:50;;;;;;;2.45;0.93;;;;;;;2.92;100.00;99638.66;6246849;28;20045;-71
2022/04/09 00:48:52;;;;;;;0.45;0.45;;;;;;;2.85;100.00;99652.75;6246947;28;20071;-72
2022/04/09 00:51:56;;;;;;;2.65;0.50;;;;;;;2.86;100.00;99651.88;6261672;28;20653;-71
2022/04/09 00:54:58;;;;;;;6.55;0.90;;;;;;;2.80;100.00;99660.72;6268245;28;20052;-71
2022/04/09 00:58:00;;;;;;;0.98;0.60;;;;;;;2.79;100.00;99660.78;6257694;28;20052;-72
2022/04/09 01:01:04;;;;;;;1.40;1.00;;;;;;;2.78;100.00;99666.88;6246523;28;20050;-71
2022/04/09 01:04:07;;;;;;;1.23;0.60;;;;;;;2.75;100.00;99665.25;6257434;28;20049;-71
2022/04/09 01:07:09;;;;;;;2.58;1.00;;;;;;;2.72;100.00;99674.88;6256756;28;20128;-71
2022/04/09 01:10:11;;;;;;;7.07;1.23;;;;;;;2.72;100.00;99674.88;6246255;28;20049;-72
2022/04/09 01:13:12;;;;;;;1.13;0.73;;;;;;;2.72;100.00;99683.50;6260239;28;20085;-71
2022/04/09 01:16:15;;;;;;;6.00;0.70;;;;;;;2.71;100.00;99697.41;6257388;28;20056;-72
2022/04/09 01:19:16;;;;;;;1.75;1.20;;;;;;;2.71;100.00;99694.78;6263255;28;20041;-73
2022/04/09 01:22:19;;;;;;;3.13;1.42;;;;;;;2.63;100.00;99694.25;6245941;28;20056;-71
2022/04/09 01:25:21;;;;;;;1.23;0.88;;;;;;;2.62;100.00;99704.69;6246421;28;20684;-71
2022/04/09 01:28:22;;;;;;;0.60;0.60;;;;;;;2.58;100.00;99716.91;6246690;28;20057;-71
2022/04/09 01:31:23;;;;;;;0.95;0.75;;;;;;;2.58;100.00;99718.66;6246898;28;20049;-71
2022/04/09 01:34:25;;;;;;;6.63;0.50;;;;;;;2.54;100.00;99723.09;6270561;28;20049;-72
2022/04/09 01:37:27;;;;;;;0.52;0.43;;;;;;;2.52;100.00;99727.53;6252021;28;20049;-72
2022/04/09 01:40:29;;;;;;;0.77;0.55;;;;;;;2.45;100.00;99736.41;6264272;28;20076;-71
2022/04/09 01:43:30;;;;;;;1.38;0.50;;;;;;;2.42;100.00;99737.38;6255317;28;20053;-72
2022/04/09 01:46:32;;;;;;;1.77;0.77;;;;;;;2.45;100.00;99746.78;6313339;22;20046;-66
2022/04/09 01:49:33;;;;;;;6.18;0.80;;;;;;;2.42;100.00;99747.75;6223595;28;20064;-65
2022/04/09 01:52:36;;;;;;;0.60;0.60;;;;;;;2.40;100.00;99756.47;6233356;28;20050;-66
2022/04/09 01:55:38;;;;;;;0.82;0.47;;;;;;;2.40;100.00;99761.66;6231775;28;20429;-66
2022/04/09 01:58:39;;;;;;;3.85;0.77;;;;;;;2.38;100.00;99766.06;6225830;28;20585;-66
2022/04/09 02:01:40;;;;;;;5.32;1.05;;;;;;;2.38;100.00;99768.66;6225625;28;20050;-66
2022/04/09 02:04:42;;;;;;;0.63;0.50;;;;;;;2.35;100.00;99772.19;6225986;28;20050;-66
2022/04/09 02:07:45;;;;;;;2.47;0.77;;;;;;;2.35;100.00;99769.59;6226055;28;20057;-66
2022/04/09 02:10:46;;;;;;;2.05;0.80;;;;;;;2.31;100.00;99782.72;6225261;28;20058;-65
2022/04/09 02:13:47;;;;;;;6.10;1.08;;;;;;;2.31;100.00;99787.91;6226328;28;20050;-66
2022/04/09 02:16:49;;;;;;;0.40;0.40;;;;;;;2.27;100.00;99787.16;6226466;28;20053;-66
2022/04/09 02:19:50;;;;;;;0.45;0.40;;;;;;;2.28;100.00;99792.31;6229081;28;20465;-65
2022/04/09 02:22:53;;;;;;;2.47;0.65;;;;;;;2.19;100.00;99800.41;6225258;28;20049;-66
2022/04/09 02:25:54;;;;;;;0.65;0.60;;;;;;;2.21;100.00;99805.53;6225349;28;20057;-66
2022/04/09 02:28:56;;;;;;;2.38;0.80;;;;;;;2.22;100.00;99809.81;6225607;28;20056;-66
2022/04/09 02:31:58;;;;;;;0.40;0.40;;;;;;;2.19;100.00;99810.78;6224693;28;20050;-66
2022/04/09 02:35:03;;;;;;;3.40;1.15;;;;;;;2.20;100.00;99822.00;6225658;28;20501;-66
2022/04/09 02:38:08;;;;;;;1.20;0.75;;;;;;;2.17;100.00;99824.69;6225411;28;20049;-65
2022/04/09 02:41:09;;;;;;;1.10;0.80;;;;;;;2.15;100.00;99831.66;6224554;28;20155;-66
2022/04/09 02:44:11;;;;;;;0.60;0.60;;;;;;;2.13;100.00;99829.09;6224646;28;20149;-66
2022/04/09 02:47:12;;;;;;;0.85;0.65;;;;;;;2.11;100.00;99838.69;6225078;28;20054;-67
2022/04/09 02:50:14;;;;;;;0.88;0.80;;;;;;;2.10;100.00;99849.97;6224025;28;20057;-67
2022/04/09 02:53:17;;;;;;;1.02;0.75;;;;;;;2.12;100.00;99857.69;6236498;28;20057;-66
2022/04/09 02:56:18;;;;;;;0.82;0.60;;;;;;;2.10;100.00;99860.34;6225022;28;20061;-66
2022/04/09 02:59:20;;;;;;;1.73;0.55;;;;;;;2.11;100.00;99866.34;6229329;28;20067;-67
2022/04/09 03:02:21;;;;;;;0.73;0.50;;;;;;;2.09;100.00;99866.41;6216087;28;20057;-66
2022/04/09 03:05:23;;;;;;;3.05;0.93;;;;;;;2.10;100.00;99873.28;6224402;28;20494;-67
2022/04/09 03:08:25;;;;;;;3.08;1.10;;;;;;;2.06;100.00;99882.06;6224669;28;20077;-68
2022/04/09 03:11:27;;;;;;;5.55;1.08;;;;;;;2.07;100.00;99888.09;6229232;28;20421;-67
2022/04/09 03:14:28;;;;;;;1.05;0.75;;;;;;;2.05;100.00;99898.50;6224271;28;20054;-68
2022/04/09 03:17:29;;;;;;;2.28;0.90;;;;;;;2.04;100.00;99894.19;6224214;28;20524;-68
2022/04/09 03:20:31;;;;;;;3.97;0.93;;;;;;;1.99;100.00;99899.53;6223710;28;20046;-67
2022/04/09 03:23:34;;;;;;;0.50;0.50;;;;;;;1.96;100.00;99903.97;6224221;28;20049;-67
2022/04/09 03:26:35;;;;;;;0.98;0.60;;;;;;;2.00;100.00;99913.34;6223843;28;20077;-67
2022/04/09 03:29:36;;;;;;;2.22;0.75;;;;;;;1.93;100.00;99914.44;6226852;28;20410;-67
2022/04/09 03:32:38;;;;;;;1.65;0.70;;;;;;;1.92;100.00;99920.50;6223219;28;20493;-67
2022/04/09 03:35:40;;;;;;;3.00;1.52;;;;;;;1.86;100.00;99928.47;6224130;28;20061;-67
2022/04/09 03:38:43;;;;;;;5.07;0.98;;;;;;;1.83;100.00;99926.81;6224119;28;20508;-67
2022/04/09 03:41:45;;;;;;;2.72;0.70;;;;;;;1.84;100.00;99927.66;6223530;28;20050;-67
2022/04/09 03:44:46;;;;;;;0.47;0.47;;;;;;;1.81;100.00;99949.31;6224096;28;20058;-67
2022/04/09 03:47:47;;;;;;;5.13;0.60;;;;;;;1.84;100.00;99944.06;6223575;28;20060;-67
2022/04/09 03:50:49;;;;;;;6.80;0.68;;;;;;;1.80;100.00;99945.03;6222919;28;20046;-67
2022/04/09 03:53:51;;;;;;;1.45;0.93;;;;;;;1.78;100.00;99952.03;6223634;28;20649;-67
2022/04/09 03:56:53;;;;;;;2.75;1.38;;;;;;;1.79;100.00;99964.06;6223415;28;20425;-67
2022/04/09 03:59:57;;;;;;;0.43;0.43;;;;;;;1.81;100.00;99967.44;6222871;28;20046;-67
2022/04/09 04:02:58;;;;;;;0.40;0.40;;;;;;;1.78;100.00;99963.22;6222033;28;20422;-67
2022/04/09 04:06:01;;;;;;;1.48;0.55;;;;;;;1.77;100.00;99976.22;6223046;28;20061;-67
2022/04/09 04:09:03;;;;;;;1.17;0.60;;;;;;;1.80;100.00;99973.53;6218448;28;20046;-66
2022/04/09 04:12:06;;;;;;;0.50;0.50;;;;;;;1.77;100.00;99982.25;6210330;28;20073;-68
2022/04/09 04:15:08;;;;;;;2.75;0.73;;;;;;;1.74;100.00;99989.28;6213118;28;20050;-67
2022/04/09 04:18:11;;;;;;;3.20;1.13;;;;;;;1.75;100.00;99996.97;6218645;28;20061;-67
2022/04/09 04:21:12;;;;;;;4.10;0.60;;;;;;;1.72;100.00;99997.06;6222525;28;20619;-67
2022/04/09 04:24:15;;;;;;;1.85;0.60;;;;;;;1.71;100.00;100003.16;6222863;28;20061;-67
2022/04/09 04:27:16;;;;;;;0.57;0.40;;;;;;;1.77;100.00;100007.28;6222767;28;20501;-67
2022/04/09 04:30:18;;;;;;;0.65;0.47;;;;;;;1.76;100.00;100013.38;6222090;28;20046;-67
2022/04/09 04:33:19;;;;;;;2.00;0.52;;;;;;;1.76;100.00;100016.81;6222483;28;20073;-67
2022/04/09 04:36:21;;;;;;;0.50;0.50;;;;;;;1.74;100.00;100022.94;6218014;28;20061;-68
2022/04/09 04:39:23;;;;;;;0.38;0.38;;;;;;;1.72;100.00;100017.78;6210134;28;20395;-67
2022/04/09 04:42:25;;;;;;;0.30;0.30;;;;;;;1.69;100.00;100028.25;6208512;28;20057;-67
2022/04/09 04:45:27;;;;;;;0.65;0.65;;;;;;;1.66;100.00;100038.69;6210830;28;20054;-67
2022/04/09 04:48:28;;;;;;;2.30;0.93;;;;;;;1.72;100.00;100045.44;6211498;28;20057;-68
2022/04/09 04:51:30;;;;;;;0.60;0.60;;;;;;;1.74;100.00;100051.44;6227063;28;20263;-68
2022/04/09 04:54:33;;;;;;;0.90;0.55;;;;;;;1.75;100.00;100058.31;6222684;28;20061;-67
2022/04/09 04:57:40;;;;;;;0.55;0.52;;;;;;;1.72;100.00;100055.78;6225675;28;20050;-68
2022/04/09 05:00:41;;;;;;;0.65;0.38;;;;;;;1.71;100.00;100057.53;6221805;28;20053;-67
2022/04/09 05:03:43;;;;;;;1.60;1.00;;;;;;;1.73;100.00;100068.72;6226140;28;20441;-67
2022/04/09 05:06:45;;;;;;;0.65;0.65;;;;;;;1.73;100.00;100081.66;6222439;28;20501;-68
2022/04/09 05:09:47;;;;;;;3.30;0.85;;;;;;;1.76;100.00;100081.56;6229840;28;20512;-68
2022/04/09 05:12:50;;;;;;;1.65;0.85;;;;;;;1.82;100.00;100079.69;6221842;28;20057;-68
2022/04/09 05:15:51;;;;;;;0.75;0.65;;;;;;;1.95;100.00;100087.09;6227251;28;20056;-68
2022/04/09 05:18:53;;;;;;;0.77;0.60;;;;;;;1.98;100.00;100094.75;6234038;28;20071;-67
2022/04/09 05:21:54;;;;;;;3.42;0.75;;;;;;;2.00;100.00;100094.75;6228734;28;20068;-66
2022/04/09 05:24:57;;;;;;;2.42;0.77;;;;;;;2.03;100.00;100099.81;6228811;28;20057;-68
2022/04/09 05:28:03;;;;;;;6.50;0.80;;;;;;;1.99;100.00;100112.00;6229317;28;20060;-68
2022/04/09 05:31:05;;;;;;;0.75;0.75;;;;;;;2.00;100.00;100116.31;6227564;28;20053;-68
2022/04/09 05:34:07;;;;;;;1.10;0.65;;;;;;;1.99;100.00;100122.38;6226926;28;20053;-68
2022/04/09 05:37:08;;;;;;;0.50;0.50;;;;;;;2.06;100.00;100115.28;6226393;28;20498;-67
2022/04/09 05:40:12;;;;;;;0.93;0.75;;;;;;;2.16;100.00;100118.44;6226497;28;20045;-67
2022/04/09 05:43:13;;;;;;;6.50;0.98;;;;;;;2.16;100.00;100131.41;6225956;28;20049;-67
2022/04/09 05:46:14;;;;;;;1.65;1.10;;;;;;;2.26;100.00;100133.69;6226200;28;20050;-69
2022/04/09 05:49:16;;;;;;;3.53;1.02;;;;;;;2.27;100.00;100134.53;6226589;28;20046;-68
2022/04/09 05:52:17;;;;;;;0.70;0.70;;;;;;;2.33;100.00;100139.56;6225618;28;20050;-67
2022/04/09 05:55:20;;;;;;;0.80;0.43;;;;;;;2.39;100.00;100154.06;6226153;28;20450;-67
2022/04/09 05:58:21;;;;;;;2.75;1.42;;;;;;;2.46;100.00;100156.44;6226041;28;20054;-67
2022/04/09 06:01:23;;;;;;;9.45;0.57;;;;;;;2.50;100.00;100155.47;6225566;28;20042;-67
2022/04/09 06:04:24;;;;;;;2.90;0.90;;;;;;;2.58;100.00;100165.59;6225870;28;20065;-67
2022/04/09 06:07:26;;;;;;;0.95;0.40;;;;;;;2.60;100.00;100170.75;6226121;28;20050;-67
2022/04/09 06:10:29;;;;;;;0.70;0.45;;;;;;;2.66;100.00;100176.59;6225131;28;20568;-68
2022/04/09 06:13:31;;;;;;;1.38;0.70;;;;;;;2.70;100.00;100178.22;6226170;28;20062;-68
2022/04/09 06:16:34;;;;;;;2.17;0.85;;;;;;;2.75;100.00;100180.66;6225670;28;20061;-67
2022/04/09 06:19:36;;;;;;;3.42;1.13;;;;;;;2.80;100.00;100184.81;6225903;28;20050;-67
2022/04/09 06:22:37;;;;;;;0.88;0.52;;;;;;;2.92;100.00;100183.59;6225254;28;20050;-67
2022/04/09 06:25:40;;;;;;;1.05;0.47;;;;;;;2.93;100.00;100193.06;6224317;28;20057;-67
2022/04/09 06:28:41;;;;;;;1.35;0.90;;;;;;;3.01;100.00;100196.28;6225638;28;20506;-68
2022/04/09 06:31:45;;;;;;;2.28;1.15;;;;;;;3.08;100.00;100201.28;6224631;28;20505;-67
2022/04/09 06:34:46;;;;;;;12.10;1.27;;;;;;;3.13;100.00;100218.41;6204712;28;20409;-67
2022/04/09 06:37:48;;;;;;;3.45;0.52;;;;;;;3.19;100.00;100219.97;6200939;28;20061;-67
2022/04/09 06:40:50;;;;;;;8.70;0.93;;;;;;;3.24;100.00;100208.53;6200409;28;20053;-67
2022/04/09 06:43:52;;;;;;;3.60;1.25;;;;;;;3.26;100.00;100226.66;6200746;28;20054;-66
2022/04/09 06:46:53;;;;;;;0.95;0.50;;;;;;;3.34;100.00;100226.41;6200821;28;20064;-67
2022/04/09 06:49:56;;;;;;;1.60;0.90;;;;;;;3.40;100.00;100221.88;6200395;28;20046;-67
2022/04/09 06:52:57;;;;;;;2.50;0.75;;;;;;;3.50;100.00;100225.88;6228365;28;20509;-67
2022/04/09 06:55:59;;;;;;;0.50;0.50;;;;;;;3.61;100.00;100240.25;6226245;28;20056;-67
2022/04/09 06:59:01;;;;;;;1.00;0.60;;;;;;;3.75;100.00;100232.84;6224479;28;20049;-67
2022/04/09 07:02:02;;;;;;;1.23;0.68;;;;;;;3.86;100.00;100230.75;6229270;28;20049;-67
2022/04/09 07:05:04;;;;;;;9.85;0.95;;;;;;;3.94;100.00;100239.13;6226393;28;20425;-67
2022/04/09 07:08:07;;;;;;;7.18;1.15;;;;;;;4.02;100.00;100254.47;6223748;28;20123;-67
2022/04/09 07:11:10;;;;;;;0.63;0.50;;;;;;;4.00;100.00;100249.34;6223295;28;20050;-67
2022/04/09 07:14:12;;;;;;;10.55;0.70;;;;;;;4.05;100.00;100265.63;6227033;28;20053;-66
2022/04/09 07:17:13;;;;;;;10.63;1.08;;;;;;;4.11;100.00;100258.50;6223929;28;20053;-67
2022/04/09 07:20:14;;;;;;;1.73;0.75;;;;;;;4.10;100.00;100269.81;6223895;28;20049;-67
2022/04/09 07:23:16;;;;;;;2.83;0.80;;;;;;;4.13;100.00;100274.88;6223463;28;20046;-67
2022/04/09 07:26:20;;;;;;;0.80;0.80;;;;;;;4.27;100.00;100272.66;6223326;28;20142;-67
2022/04/09 07:29:22;;;;;;;2.05;0.45;;;;;;;4.36;100.00;100264.56;6223396;28;20049;-67
2022/04/09 07:32:23;;;;;;;6.70;1.38;;;;;;;4.47;100.00;100275.41;6225801;28;20066;-67
2022/04/09 07:35:24;;;;;;;3.33;1.00;;;;;;;4.57;100.00;100271.56;6223176;28;20072;-67
2022/04/09 07:38:26;;;;;;;6.93;0.85;;;;;;;4.71;100.00;100280.63;6222895;28;20054;-67
2022/04/09 07:41:29;;;;;;;5.10;0.90;;;;;;;4.73;100.00;100271.88;6221301;28;20052;-67
2022/04/09 07:44:30;;;;;;;6.03;0.80;;;;;;;4.81;100.00;100279.38;6220208;28;20049;-67
2022/04/09 07:47:31;;;;;;;0.50;0.40;;;;;;;4.78;100.00;100282.97;6242427;23;20050;-70
2022/04/09 07:50:34;;;;;;;0.88;0.60;;;;;;;4.69;100.00;100279.84;6230612;28;20057;-69
2022/04/09 07:53:36;;;;;;;2.20;0.98;;;;;;;4.87;100.00;100286.97;6242650;28;20068;-70
2022/04/09 07:56:38;;;;;;;1.15;0.80;;;;;;;5.07;100.00;100288.81;6247208;28;20053;-69
2022/04/09 07:59:40;;;;;;;3.40;0.93;;;;;;;5.15;100.00;100297.19;6229096;28;20129;-67
2022/04/09 08:02:41;;;;;;;4.43;0.70;;;;;;;5.13;100.00;100293.78;6223128;28;20498;-69
2022/04/09 08:05:43;;;;;;;4.15;0.65;;;;;;;5.07;100.00;100315.72;6223250;28;20563;-70
2022/04/09 08:08:45;;;;;;;0.63;0.40;;;;;;;5.02;100.00;100303.78;6222969;28;20078;-69
2022/04/09 08:11:47;;;;;;;0.82;0.40;;;;;;;5.00;100.00;100306.44;6223030;28;20093;-70
2022/04/09 08:14:49;;;;;;;2.88;0.80;;;;;;;5.03;100.00;100308.06;6223231;28;20148;-68
2022/04/09 08:17:54;;;;;;;2.28;0.63;;;;;;;5.04;100.00;100299.34;6223165;28;20050;-68
2022/04/09 08:20:55;;;;;;;1.65;1.10;;;;;;;5.14;100.00;100313.75;6222154;28;20053;-68
2022/04/09 08:23:56;;;;;;;1.23;0.90;;;;;;;5.39;100.00;100318.84;6223174;28;20050;-68
2022/04/09 08:26:59;;;;;;;4.25;0.57;;;;;;;5.55;100.00;100317.34;6220983;28;20061;-69
2022/04/09 08:30:01;;;;;;;1.05;0.47;;;;;;;5.57;100.00;100331.16;6222284;28;20391;-68
2022/04/09 08:33:05;;;;;;;0.60;0.50;;;;;;;5.65;100.00;100343.88;6222524;28;20243;-70
2022/04/09 08:36:07;;;;;;;1.27;0.40;;;;;;;5.84;100.00;100320.53;6222540;28;20053;-68
2022/04/09 08:39:08;;;;;;;0.50;0.40;;;;;;;5.88;100.00;100332.53;6222695;28;20046;-68
2022/04/09 08:42:13;;;;;;;1.08;0.30;;;;;;;6.07;100.00;100351.75;6221849;28;20042;-68
2022/04/09 08:45:15;;;;;;;0.65;0.60;;;;;;;6.12;100.00;100322.03;6222456;28;20468;-68
2022/04/09 08:48:21;;;;;;;1.15;0.50;;;;;;;6.22;100.00;100329.44;6222106;28;20054;-68
2022/04/09 08:51:23;;;;;;;5.32;0.60;;;;;;;6.27;100.00;100329.25;6221498;28;20073;-68
2022/04/09 08:54:25;;;;;;;1.80;1.17;;;;;;;6.22;100.00;100333.78;6222376;28;20057;-68
2022/04/09 08:57:28;;;;;;;0.20;0.20;;;;;;;6.14;100.00;100336.72;6222627;28;20057;-68
2022/04/09 09:00:30;;;;;;;0.50;0.50;;;;;;;6.11;100.00;100344.66;6221451;28;20045;-66
2022/04/09 09:03:35;;;;;;;1.55;0.40;;;;;;;6.00;100.00;100352.09;6222654;28;20057;-68
2022/04/09 09:06:40;;;;;;;2.40;0.43;;;;;;;5.81;100.00;100351.94;6222294;28;20050;-68
2022/04/09 09:09:42;;;;;;;0.45;0.40;;;;;;;5.90;100.00;100364.59;6222101;28;20056;-68
2022/04/09 09:12:44;;;;;;;0.47;0.30;;;;;;;5.97;100.00;100355.66;6221584;28;20050;-68
2022/04/09 09:15:47;;;;;;;1.45;0.40;;;;;;;5.85;100.00;100363.94;6221859;28;20054;-68
2022/04/09 09:18:51;;;;;;;0.68;0.30;;;;;;;5.84;100.00;100367.47;6222074;28;20046;-68
2022/04/09 09:21:54;;;;;;;2.17;0.80;;;;;;;5.89;100.00;100375.94;6221280;28;20088;-68
2022/04/09 09:25:03;;;;;;;3.38;0.77;;;;;;;5.87;100.00;100377.78;6221988;28;20052;-69
2022/04/09 09:28:06;;;;;;;0.57;0.45;;;;;;;5.95;100.00;100380.97;6221498;28;20057;-68
2022/04/09 09:31:08;;;;;;;1.98;0.30;;;;;;;6.02;100.00;100351.09;6221317;28;20054;-68
2022/04/09 09:34:11;;;;;;;0.70;0.32;;;;;;;6.24;100.00;100366.72;6221748;28;20049;-68
2022/04/09 09:37:21;;;;;;;3.45;0.70;;;;;;;6.44;100.00;100352.84;6222028;28;20052;-68
2022/04/09 09:40:32;;;;;;;3.20;0.22;;;;;;;6.69;99.32;100368.31;6213436;28;20050;-69
2022/04/09 09:43:36;;;;;;;2.58;1.20;;;;;;;6.81;99.81;100353.84;6217350;28;20058;-67
2022/04/09 09:46:37;;;;;;;0.32;0.32;;;;;;;6.82;95.19;100372.09;6216411;28;20058;-67
2022/04/09 09:49:50;;;;;;;0.45;0.28;;;;;;;6.73;98.46;100372.47;6220565;28;20597;-68
2022/04/09 09:53:04;;;;;;;0.10;0.10;;;;;;;6.78;93.05;100378.34;6221272;28;20493;-67
2022/04/09 09:56:05;;;;;;;0.70;0.30;;;;;;;6.76;94.79;100374.94;6221959;28;20042;-68
2022/04/09 09:59:09;;;;;;;0.60;0.22;;;;;;;7.02;96.00;100401.69;6221496;28;20053;-68
2022/04/09 10:02:18;;;;;;;0.65;0.30;;;;;;;6.99;96.30;100381.75;6224991;28;20057;-68
2022/04/09 10:05:23;;;;;;;3.20;0.75;;;;;;;7.20;98.35;100384.34;6226089;28;20057;-69
2022/04/09 10:08:24;;;;;;;0.80;0.40;;;;;;;7.30;97.42;100383.84;6226561;28;20148;-70
2022/04/09 10:11:27;;;;;;;1.35;0.57;;;;;;;7.36;91.34;100375.75;6217392;28;20053;-69
2022/04/09 10:14:33;;;;;;;7.57;0.30;;;;;;;7.48;89.18;100394.38;6222495;28;20060;-70
2022/04/09 10:17:35;;;;;;;4.30;0.82;;;;;;;7.71;88.04;100388.09;6224800;28;20050;-67
2022/04/09 10:20:37;;;;;;;3.97;0.30;;;;;;;7.82;87.48;100380.59;6221373;28;20050;-69
2022/04/09 10:23:38;;;;;;;1.33;0.38;;;;;;;7.73;86.35;100373.19;6225701;28;20049;-69
2022/04/09 10:26:41;;;;;;;1.55;0.20;;;;;;;7.65;85.38;100406.69;6225494;28;20452;-70
2022/04/09 10:29:50;;;;;;;1.95;0.50;;;;;;;7.48;86.32;100383.94;6225429;28;20056;-70
2022/04/09 10:32:54;;;;;;;0.77;0.35;;;;;;;7.57;85.72;100375.66;6224127;28;20042;-68
2022/04/09 10:36:00;;;;;;;2.75;0.55;;;;;;;7.52;87.08;100380.25;6225285;28;20513;-68
2022/04/09 10:39:20;;;;;;;2.83;0.20;;;;;;;7.50;86.46;100389.94;6224925;28;20061;-69
2022/04/09 10:42:47;;;;;;;2.53;1.08;;;;;;;7.35;89.49;100404.56;6224440;28;20129;-68
2022/04/09 10:46:21;;;;;;;0.20;0.20;;;;;;;7.10;95.09;100403.06;6225241;28;20046;-67
2022/04/09 10:49:28;;;;;;;1.70;1.60;;;;;;;6.83;100.00;100425.16;6224763;28;20056;-68
2022/04/09 10:52:30;;;;;;;1.75;0.70;;;;;;;6.59;100.00;100414.84;6223580;28;20054;-67
2022/04/09 10:55:32;;;;;;;0.30;0.30;;;;;;;6.71;100.00;100403.03;6224739;28;20147;-71
2022/04/09 10:59:01;;;;;;;1.85;0.70;;;;;;;6.91;100.00;100406.56;6224721;28;20080;-68
2022/04/09 11:02:04;;;;;;;;;;;;;;;6.90;100.00;100400.47;6224248;28;20045;-68
2022/04/09 11:05:21;;;;;;;2.30;0.75;;;;;;;6.71;100.00;100395.19;6224711;28;19925;-67
2022/04/09 11:08:23;;;;;;;0.68;0.28;;;;;;;6.64;100.00;100398.16;6210756;28;20053;-68
2022/04/09 11:11:25;;;;;;;1.70;0.52;;;;;;;6.91;100.00;100398.72;6223562;28;20053;-68
2022/04/09 11:14:28;;;;;;;0.50;0.20;;;;;;;7.38;100.00;100393.97;6224326;28;20054;-70
2022/04/09 11:17:31;;;;;;;1.98;0.55;;;;;;;7.88;100.00;100386.38;6224239;28;20072;-71
2022/04/09 11:20:35;;;;;;;2.70;0.60;;;;;;;8.10;98.83;100414.13;6223567;28;20050;-71
2022/04/09 11:23:37;;;;;;;0.55;0.38;;;;;;;7.48;92.49;100463.22;6224526;28;20049;-71
2022/04/09 11:26:38;;;;;;;0.55;0.55;;;;;;;5.74;100.00;100484.31;6223849;28;20057;-67
2022/04/09 11:29:42;;;;;;;0.20;0.20;;;;;;;4.01;100.00;100505.81;6224134;28;20060;-68
2022/04/09 11:32:46;;;;;;;0.10;0.10;;;;;;;2.91;100.00;100540.03;6223475;28;20054;-68
2022/04/09 11:35:47;;;;;;;0.30;0.20;;;;;;;2.60;100.00;100485.47;6224309;28;20046;-68
2022/04/09 11:38:49;;;;;;;0.82;0.40;;;;;;;2.69;100.00;100490.41;6223889;28;20494;-67
2022/04/09 11:41:51;;;;;;;2.10;0.80;;;;;;;2.85;100.00;100501.25;6223357;28;20050;-67
2022/04/09 11:44:54;;;;;;;0.30;0.30;;;;;;;3.37;100.00;100512.88;6222993;28;20053;-67
2022/04/09 11:47:58;;;;;;;1.02;0.50;;;;;;;3.89;100.00;100519.16;6223110;28;20056;-67
2022/04/09 11:50:59;;;;;;;1.13;0.30;;;;;;;4.16;100.00;100506.22;6223074;28;20046;-67
2022/04/09 11:54:17;;;;;;;3.85;0.70;;;;;;;4.76;100.00;100515.56;6223487;28;20065;-68
2022/04/09 11:57:18;;;;;;;0.28;0.28;;;;;;;5.01;100.00;100523.44;6223627;28;20049;-68
2022/04/09 12:00:23;;;;;;;0.28;0.20;;;;;;;5.20;100.00;100518.44;6222258;28;20049;-67
2022/04/09 12:03:24;;;;;;;0.30;0.20;;;;;;;4.93;100.00;100518.47;6198994;28;20108;-68
2022/04/09 12:06:26;;;;;;;2.35;0.30;;;;;;;4.81;100.00;100508.47;6198883;28;20046;-68
2022/04/09 12:09:28;;;;;;;0.20;0.20;;;;;;;4.66;100.00;100515.03;6198820;28;20557;-67
2022/04/09 12:12:29;;;;;;;0.50;0.20;;;;;;;4.71;100.00;100522.69;6198086;28;20046;-67
2022/04/09 12:15:33;;;;;;;0.10;0.10;;;;;;;4.77;100.00;100520.75;6198815;28;20062;-68
2022/04/09 12:18:36;;;;;;;3.63;0.20;;;;;;;5.18;100.00;100531.53;6220659;28;20135;-68
2022/04/09 12:21:38;;;;;;;2.00;0.22;;;;;;;6.12;100.00;100521.16;6222121;28;20046;-66
2022/04/09 12:24:50;;;;;;;1.25;0.30;;;;;;;6.93;100.00;100522.25;6222013;28;20046;-68
2022/04/09 12:27:51;;;;;;;3.10;0.63;;;;;;;7.58;100.00;100510.72;6222891;28;20057;-71
2022/04/09 12:30:56;;;;;;;0.90;0.60;;;;;;;7.77;100.00;100513.38;6222000;28;20045;-70
2022/04/09 12:33:58;;;;;;;3.42;0.32;;;;;;;8.12;100.00;100528.25;6222595;28;20532;-69
2022/04/09 12:37:00;;;;;;;3.78;0.75;;;;;;;8.01;100.00;100527.09;6222510;28;20050;-71
2022/04/09 12:40:13;;;;;;;4.07;0.52;;;;;;;7.69;100.00;100526.78;6221760;28;20045;-69
2022/04/09 12:43:34;;;;;;;1.38;0.38;;;;;;;6.75;100.00;100550.81;6221331;28;20066;-67
2022/04/09 12:46:48;;;;;;;0.32;0.30;;;;;;;5.48;100.00;100578.25;6216544;28;20049;-67
2022/04/09 12:49:49;;;;;;;0.10;0.10;;;;;;;5.28;100.00;100563.31;6217595;28;20528;-69
2022/04/09 12:52:51;;;;;;;2.50;0.22;;;;;;;5.38;100.00;100567.28;6222178;28;20074;-67
2022/04/09 12:55:53;;;;;;;0.45;0.13;;;;;;;5.76;100.00;100570.28;6214889;28;20517;-68
2022/04/09 12:58:54;;;;;;;0.38;0.22;;;;;;;6.03;100.00;100578.88;6219963;28;20567;-67
2022/04/09 13:01:57;;;;;;;2.42;0.25;;;;;;;6.05;100.00;100575.31;6221448;28;20050;-69
2022/04/09 13:04:58;;;;;;;2.45;0.17;;;;;;;5.63;100.00;100590.72;6222084;28;20070;-67
2022/04/09 13:08:00;;;;;;;0.25;0.15;;;;;;;5.36;100.00;100629.03;6216872;28;20060;-68
2022/04/09 13:11:02;;;;;;;0.98;0.20;;;;;;;4.97;100.00;100618.19;6221218;28;20050;-67
2022/04/09 13:14:04;;;;;;;0.00;0.00;;;;;;;4.69;100.00;100597.38;6222198;28;20050;-68
2022/04/09 13:17:07;;;;;;;0.10;0.10;;;;;;;4.86;100.00;100602.91;6221745;28;20049;-69
2022/04/09 13:20:10;;;;;;;3.50;0.55;;;;;;;5.49;100.00;100609.44;6221790;28;20050;-68
2022/04/09 13:23:11;;;;;;;0.43;0.20;;;;;;;6.46;100.00;100595.53;6221574;28;20053;-68
2022/04/09 13:26:12;;;;;;;0.22;0.20;;;;;;;7.10;100.00;100608.63;6221658;28;20399;-68
2022/04/09 13:29:14;;;;;;;0.20;0.17;;;;;;;7.18;100.00;100613.56;6221994;28;20046;-70
2022/04/09 13:32:17;;;;;;;0.43;0.30;;;;;;;7.02;100.00;100610.69;6215636;28;20409;-68
2022/04/09 13:35:18;;;;;;;0.20;0.20;;;;;;;6.47;100.00;100615.50;6222628;28;20050;-70
2022/04/09 13:38:20;;;;;;;0.20;0.20;;;;;;;6.00;100.00;100623.38;6225890;28;20053;-67
2022/04/09 13:41:26;;;;;;;0.70;0.30;;;;;;;5.51;100.00;100667.59;6217845;28;20634;-68
2022/04/09 13:44:27;;;;;;;1.20;0.38;;;;;;;4.79;100.00;100632.63;6226539;28;20046;-67
2022/04/09 13:47:30;;;;;;;0.82;0.10;;;;;;;4.53;100.00;100629.06;6226386;28;20062;-68
2022/04/09 13:50:31;;;;;;;2.67;0.88;;;;;;;4.48;100.00;100630.97;6225674;28;20050;-69
2022/04/09 13:53:32;;;;;;;0.68;0.45;;;;;;;4.47;100.00;100629.25;6226464;28;20046;-69
2022/04/09 13:56:34;;;;;;;2.35;0.38;;;;;;;4.49;100.00;100629.22;6226423;28;20161;-69
2022/04/09 13:59:35;;;;;;;0.20;0.20;;;;;;;4.55;100.00;100614.28;6226209;28;20049;-69
2022/04/09 14:02:40;;;;;;;2.78;0.63;;;;;;;4.53;100.00;100613.44;6224624;28;20140;-69
2022/04/09 14:05:41;;;;;;;0.30;0.30;;;;;;;4.73;100.00;100601.59;6225859;28;20056;-69
2022/04/09 14:08:43;;;;;;;1.85;0.40;;;;;;;4.92;100.00;100610.50;6226318;28;20050;-69
2022/04/09 14:11:44;;;;;;;2.10;0.40;;;;;;;4.98;100.00;100620.72;6225277;28;20046;-69
2022/04/09 14:14:45;;;;;;;0.85;0.50;;;;;;;4.86;100.00;100602.03;6226027;28;20053;-68